Time;durP1;ratioP1;P1;durP2;ratioP2;P2;SDS_P1;SDS_P2;PMS_P1;PMS_P2;Temp;Humidity;BMP_temperature;BMP_pressure;BME280_temperature;BME280_humidity;BME280_pressure;Samples;Min_cycle;Max_cycle;Signal;HPM_P1;HPM_P2
2023/01/14 00:00:08;;;;;;;5.15;3.13;;;;;;;;;;5075162;28;20587;-48
2023/01/14 00:02:34;;;;;;;5.43;3.28;;;;;;;;;;5086553;28;20076;-47
2023/01/14 00:05:00;;;;;;;6.57;3.63;;;;;;;;;;5071870;28;20020;-45
2023/01/14 00:07:26;;;;;;;6.25;4.00;;;;;;;;;;5072071;28;20036;-46
2023/01/14 00:09:52;;;;;;;6.18;3.83;;;;;;;;;;5070043;28;20028;-49
2023/01/14 00:12:21;;;;;;;6.68;3.88;;;;;;;;;;5083400;28;20641;-45
2023/01/14 00:14:47;;;;;;;5.65;3.38;;;;;;;;;;5090076;28;20031;-45
2023/01/14 00:17:13;;;;;;;4.72;2.78;;;;;;;;;;5090571;28;20390;-46
2023/01/14 00:19:39;;;;;;;3.75;2.53;;;;;;;;;;5082793;28;20495;-48
2023/01/14 00:22:05;;;;;;;3.50;1.88;;;;;;;;;;5069701;28;20044;-49
2023/01/14 00:24:31;;;;;;;3.70;2.00;;;;;;;;;;5069491;28;20025;-46
2023/01/14 00:26:58;;;;;;;3.33;1.60;;;;;;;;;;5069634;28;20025;-47
2023/01/14 00:29:28;;;;;;;3.30;1.55;;;;;;;;;;5069738;28;20537;-44
2023/01/14 00:31:55;;;;;;;3.22;1.33;;;;;;;;;;5069552;28;20032;-47
2023/01/14 00:34:21;;;;;;;2.00;1.20;;;;;;;;;;5069415;28;20028;-45
2023/01/14 00:36:47;;;;;;;2.33;1.10;;;;;;;;;;5069625;28;20032;-46
2023/01/14 00:39:15;;;;;;;2.38;1.40;;;;;;;;;;5071625;28;20029;-46
2023/01/14 00:41:42;;;;;;;4.57;1.25;;;;;;;;;;5069916;28;20028;-46
2023/01/14 00:44:08;;;;;;;2.17;1.20;;;;;;;;;;5069311;28;20086;-46
2023/01/14 00:46:35;;;;;;;2.58;1.40;;;;;;;;;;5069380;28;20028;-45
2023/01/14 00:49:01;;;;;;;3.47;1.80;;;;;;;;;;5069047;28;20029;-45
2023/01/14 00:51:28;;;;;;;6.35;2.00;;;;;;;;;;5069416;28;20400;-46
2023/01/14 00:53:55;;;;;;;3.58;2.33;;;;;;;;;;5070711;28;20032;-47
2023/01/14 00:56:21;;;;;;;4.38;2.17;;;;;;;;;;5086471;28;20032;-46
2023/01/14 00:58:47;;;;;;;6.30;3.17;;;;;;;;;;5076891;28;20024;-46
2023/01/14 01:01:14;;;;;;;5.57;3.10;;;;;;;;;;5073939;28;20039;-46
2023/01/14 01:03:42;;;;;;;6.18;3.13;;;;;;;;;;5083998;28;20020;-48
2023/01/14 06:12:04;;;;;;;4.53;2.00;;;;;;;;;;5083774;28;20600;-45
2023/01/14 06:14:33;;;;;;;3.33;1.48;;;;;;;;;;5077929;28;20036;-45
2023/01/14 06:17:02;;;;;;;4.13;1.70;;;;;;;;;;5088436;28;20541;-47
2023/01/14 06:19:28;;;;;;;5.10;1.77;;;;;;;;;;5107974;28;20031;-44
2023/01/14 06:21:54;;;;;;;3.30;1.52;;;;;;;;;;5100117;28;20103;-46
2023/01/14 06:24:20;;;;;;;2.47;1.38;;;;;;;;;;5069440;28;20106;-45
2023/01/14 06:26:46;;;;;;;2.50;1.40;;;;;;;;;;5068954;28;20032;-49
2023/01/14 06:29:13;;;;;;;3.75;1.75;;;;;;;;;;5068823;28;20032;-45
2023/01/14 06:31:40;;;;;;;3.35;1.42;;;;;;;;;;5068756;28;20028;-47
2023/01/14 06:34:07;;;;;;;3.22;1.48;;;;;;;;;;5078702;28;20019;-45
2023/01/14 06:36:34;;;;;;;3.95;1.73;;;;;;;;;;5109309;28;20495;-44
2023/01/14 06:39:00;;;;;;;4.85;2.15;;;;;;;;;;5109527;28;20020;-45
2023/01/14 06:41:26;;;;;;;3.63;1.75;;;;;;;;;;5091749;28;20052;-45
2023/01/14 06:43:52;;;;;;;4.50;2.00;;;;;;;;;;5081229;28;20027;-45
2023/01/14 06:46:18;;;;;;;3.97;1.85;;;;;;;;;;5088154;28;20039;-49
2023/01/14 06:48:45;;;;;;;3.55;1.88;;;;;;;;;;5088223;28;20025;-46
2023/01/14 06:51:12;;;;;;;4.82;1.90;;;;;;;;;;5087848;28;20020;-46
2023/01/14 06:53:39;;;;;;;3.88;1.90;;;;;;;;;;5087062;28;20032;-44
2023/01/14 06:56:06;;;;;;;4.05;1.80;;;;;;;;;;5070411;28;20035;-45
2023/01/14 06:58:32;;;;;;;5.22;2.00;;;;;;;;;;5087992;28;20430;-45
2023/01/14 07:01:00;;;;;;;3.28;2.08;;;;;;;;;;5087559;28;20036;-45
2023/01/14 07:03:26;;;;;;;5.63;2.50;;;;;;;;;;5086193;28;20071;-46
2023/01/14 07:05:52;;;;;;;5.22;2.55;;;;;;;;;;5080826;28;20032;-46
2023/01/14 07:08:19;;;;;;;4.40;2.10;;;;;;;;;;5085906;28;20035;-44
2023/01/14 07:10:52;;;;;;;4.75;2.30;;;;;;;;;;5085545;28;20055;-46
2023/01/14 07:13:19;;;;;;;4.20;2.00;;;;;;;;;;5087642;28;20107;-46
2023/01/14 07:15:45;;;;;;;3.63;2.13;;;;;;;;;;5087521;28;20032;-45
2023/01/14 07:18:12;;;;;;;4.50;2.22;;;;;;;;;;5087315;28;20106;-45
2023/01/14 07:20:38;;;;;;;4.85;2.00;;;;;;;;;;5094722;28;20039;-45
2023/01/14 07:23:05;;;;;;;4.80;2.40;;;;;;;;;;5083843;28;20078;-45
2023/01/14 07:25:31;;;;;;;6.28;2.40;;;;;;;;;;5068266;28;20103;-46
2023/01/14 07:27:57;;;;;;;4.03;2.13;;;;;;;;;;5069150;28;20060;-44
2023/01/14 07:30:23;;;;;;;3.67;1.67;;;;;;;;;;5087875;28;20030;-45
2023/01/14 07:32:49;;;;;;;3.83;1.85;;;;;;;;;;5078976;28;20036;-45
2023/01/14 07:35:15;;;;;;;3.75;2.28;;;;;;;;;;5087663;28;20028;-45
2023/01/14 07:37:41;;;;;;;4.22;2.40;;;;;;;;;;5087332;28;20462;-46
2023/01/14 07:40:08;;;;;;;4.88;2.20;;;;;;;;;;5086636;28;20038;-44
2023/01/14 07:42:34;;;;;;;3.03;1.70;;;;;;;;;;5087223;28;20036;-44
2023/01/14 07:45:00;;;;;;;3.00;1.50;;;;;;;;;;5086909;28;20558;-45
2023/01/14 07:47:26;;;;;;;2.33;1.60;;;;;;;;;;5086723;28;20058;-45
2023/01/14 07:49:52;;;;;;;4.40;2.00;;;;;;;;;;5086435;28;20029;-44
2023/01/14 07:52:18;;;;;;;4.28;1.70;;;;;;;;;;5080144;28;20695;-45
2023/01/14 07:54:44;;;;;;;3.33;2.10;;;;;;;;;;5081154;28;20102;-45
2023/01/14 07:57:11;;;;;;;4.20;2.03;;;;;;;;;;5087643;28;20024;-46
2023/01/14 07:59:38;;;;;;;6.07;2.50;;;;;;;;;;5086677;28;20035;-48
2023/01/14 08:02:05;;;;;;;5.72;3.28;;;;;;;;;;5086184;28;20043;-45
2023/01/14 08:04:32;;;;;;;7.18;3.38;;;;;;;;;;5082756;28;20085;-45
2023/01/14 08:06:58;;;;;;;5.93;2.92;;;;;;;;;;5086830;28;20032;-45
2023/01/14 08:09:25;;;;;;;4.55;2.67;;;;;;;;;;5086951;28;20020;-45
2023/01/14 08:11:51;;;;;;;4.40;2.65;;;;;;;;;;5083433;28;20063;-45
2023/01/14 08:14:17;;;;;;;4.25;2.75;;;;;;;;;;5085235;28;20123;-46
2023/01/14 08:16:43;;;;;;;5.57;3.03;;;;;;;;;;5089377;28;20039;-44
2023/01/14 08:19:12;;;;;;;7.22;3.22;;;;;;;;;;5089306;28;20395;-47
2023/01/14 08:21:38;;;;;;;3.95;2.58;;;;;;;;;;5089004;28;20032;-46
2023/01/14 08:24:04;;;;;;;4.18;2.50;;;;;;;;;;5089823;28;20170;-45
2023/01/14 08:26:30;;;;;;;3.83;2.25;;;;;;;;;;5089213;28;20024;-46
2023/01/14 08:28:56;;;;;;;3.20;2.00;;;;;;;;;;5087071;28;20051;-45
2023/01/14 08:31:22;;;;;;;5.45;2.22;;;;;;;;;;5069366;28;20399;-46
2023/01/14 08:33:48;;;;;;;3.90;2.35;;;;;;;;;;5069512;28;20044;-46
2023/01/14 08:36:16;;;;;;;2.85;2.03;;;;;;;;;;5069353;28;20032;-45
2023/01/14 08:38:44;;;;;;;2.50;1.88;;;;;;;;;;5069200;28;20063;-46
2023/01/14 08:41:11;;;;;;;4.45;2.00;;;;;;;;;;5068115;28;20131;-46
2023/01/14 08:43:37;;;;;;;3.20;1.65;;;;;;;;;;5067271;28;20024;-44
2023/01/14 08:46:04;;;;;;;2.88;1.60;;;;;;;;;;5067688;28;20031;-45
2023/01/14 08:48:31;;;;;;;3.70;1.70;;;;;;;;;;5050108;28;20506;-47
2023/01/14 08:51:07;;;;;;;1.80;1.50;;;;;;;;;;5067555;28;20017;-45
2023/01/14 08:53:37;;;;;;;2.97;1.98;;;;;;;;;;5067585;28;20063;-45
2023/01/14 08:56:04;;;;;;;3.58;1.83;;;;;;;;;;5067298;28;20346;-44
2023/01/14 08:58:30;;;;;;;3.47;2.00;;;;;;;;;;5067579;28;20116;-45
2023/01/14 09:01:00;;;;;;;2.28;1.42;;;;;;;;;;5067445;28;20024;-45
2023/01/14 09:03:30;;;;;;;3.53;1.60;;;;;;;;;;5067509;28;20028;-45
2023/01/14 09:05:59;;;;;;;3.95;2.03;;;;;;;;;;5067436;28;20024;-46
2023/01/14 09:19:41;;;;;;;4.03;2.25;;;;;;;;;;5043664;28;19909;-45
2023/01/14 09:22:10;;;;;;;3.80;1.85;;;;;;;;;;5066733;28;20595;-46
2023/01/14 09:24:36;;;;;;;3.05;1.92;;;;;;;;;;5067230;28;20499;-46
2023/01/14 09:27:01;;;;;;;4.38;2.35;;;;;;;;;;5067231;28;20099;-47
2023/01/14 09:29:27;;;;;;;2.88;2.35;;;;;;;;;;5066840;28;20100;-48
2023/01/14 09:31:54;;;;;;;3.22;2.13;;;;;;;;;;5066783;28;20033;-45
2023/01/14 09:34:20;;;;;;;3.85;1.98;;;;;;;;;;5066777;28;20138;-47
2023/01/14 09:36:47;;;;;;;3.83;1.98;;;;;;;;;;5066818;28;20557;-47
2023/01/14 09:39:13;;;;;;;3.28;1.75;;;;;;;;;;5067099;28;20029;-45
2023/01/14 09:41:44;;;;;;;3.85;1.98;;;;;;;;;;5066183;28;20472;-47
2023/01/14 09:44:11;;;;;;;2.03;1.55;;;;;;;;;;5066380;28;20530;-45
2023/01/14 09:46:38;;;;;;;3.75;1.88;;;;;;;;;;5066543;28;20024;-46
2023/01/14 09:49:05;;;;;;;3.40;2.00;;;;;;;;;;5066319;28;20025;-47
2023/01/14 09:51:57;;;;;;;3.67;1.90;;;;;;;;;;5067027;28;20021;-47
2023/01/14 09:54:44;;;;;;;4.32;2.30;;;;;;;;;;5035215;28;20411;-45
2023/01/14 09:57:11;;;;;;;4.38;2.45;;;;;;;;;;5052083;28;20503;-44
2023/01/14 09:59:39;;;;;;;5.82;2.88;;;;;;;;;;5066478;28;20021;-46
2023/01/14 10:02:25;;;;;;;7.85;3.17;;;;;;;;;;5065913;28;20417;-48
2023/01/14 10:04:57;;;;;;;6.20;3.53;;;;;;;;;;5066491;28;20483;-46
2023/01/14 10:07:24;;;;;;;4.75;3.17;;;;;;;;;;5066055;28;20055;-45
2023/01/14 10:09:53;;;;;;;6.38;3.28;;;;;;;;;;5065598;28;20518;-46
2023/01/14 10:12:22;;;;;;;5.28;3.08;;;;;;;;;;5065973;28;20027;-45
2023/01/14 10:14:51;;;;;;;4.65;2.70;;;;;;;;;;5066971;28;20075;-46
2023/01/14 10:17:20;;;;;;;4.10;2.60;;;;;;;;;;5085881;28;20186;-45
2023/01/14 10:19:48;;;;;;;4.65;2.65;;;;;;;;;;5086691;28;20077;-46
2023/01/14 10:22:33;;;;;;;6.47;2.53;;;;;;;;;;5086476;28;20051;-48
2023/01/14 10:24:58;;;;;;;6.63;2.67;;;;;;;;;;5086080;28;20044;-45
2023/01/14 10:27:30;;;;;;;4.97;2.50;;;;;;;;;;5085345;28;20093;-45
2023/01/14 10:29:57;;;;;;;4.55;2.22;;;;;;;;;;5085818;28;20099;-46
2023/01/14 10:32:23;;;;;;;2.90;1.85;;;;;;;;;;5085700;28;20293;-45
2023/01/14 10:34:51;;;;;;;3.60;1.98;;;;;;;;;;5085790;28;20059;-47
2023/01/14 10:37:18;;;;;;;3.58;1.90;;;;;;;;;;5085723;28;20123;-45
2023/01/14 10:39:52;;;;;;;3.30;2.10;;;;;;;;;;5086100;28;20028;-47
2023/01/14 10:42:26;;;;;;;3.92;1.77;;;;;;;;;;5085430;28;20056;-49
2023/01/14 10:44:53;;;;;;;2.85;1.77;;;;;;;;;;5085620;28;20024;-46
2023/01/14 10:47:21;;;;;;;2.55;1.55;;;;;;;;;;5085527;28;20486;-47
2023/01/14 10:49:56;;;;;;;2.40;1.38;;;;;;;;;;5085708;28;20070;-48
2023/01/14 10:52:32;;;;;;;2.08;1.45;;;;;;;;;;5085429;28;20024;-46
2023/01/14 10:54:58;;;;;;;1.92;1.38;;;;;;;;;;5085419;28;20523;-45
2023/01/14 10:57:25;;;;;;;2.22;1.23;;;;;;;;;;5085410;28;20052;-46
2023/01/14 10:59:51;;;;;;;2.05;1.30;;;;;;;;;;5085342;28;20028;-47
2023/01/14 11:02:22;;;;;;;2.17;1.38;;;;;;;;;;5085041;28;20118;-47
2023/01/14 11:04:49;;;;;;;2.58;1.30;;;;;;;;;;5066968;28;20403;-46
2023/01/14 11:07:22;;;;;;;4.43;1.80;;;;;;;;;;5085794;28;20859;-46
2023/01/14 11:09:48;;;;;;;2.17;1.30;;;;;;;;;;5085266;28;20091;-45
2023/01/14 11:12:25;;;;;;;3.78;1.75;;;;;;;;;;5085600;28;20641;-47
2023/01/14 11:14:52;;;;;;;2.33;1.08;;;;;;;;;;5085147;28;20039;-49
2023/01/14 11:17:22;;;;;;;6.65;2.22;;;;;;;;;;5085529;28;20040;-45
2023/01/14 11:19:49;;;;;;;2.22;1.20;;;;;;;;;;5085205;28;20020;-47
2023/01/14 11:22:15;;;;;;;4.00;1.40;;;;;;;;;;5085655;28;20032;-46
2023/01/14 11:24:44;;;;;;;3.67;1.20;;;;;;;;;;5085774;28;20031;-45
2023/01/14 11:27:21;;;;;;;4.38;1.58;;;;;;;;;;5085056;28;20130;-47
2023/01/14 11:29:51;;;;;;;2.25;1.65;;;;;;;;;;5084999;28;20028;-49
2023/01/14 11:32:21;;;;;;;2.38;1.02;;;;;;;;;;5084889;28;20109;-49
2023/01/14 11:34:47;;;;;;;2.92;1.20;;;;;;;;;;5085145;28;20114;-45
2023/01/14 11:37:19;;;;;;;1.92;1.02;;;;;;;;;;5085662;28;20032;-46
2023/01/14 11:39:53;;;;;;;2.92;1.30;;;;;;;;;;5085588;28;20109;-46
2023/01/14 11:42:28;;;;;;;2.35;1.35;;;;;;;;;;5084800;28;20482;-47
2023/01/14 11:45:00;;;;;;;2.78;1.13;;;;;;;;;;5083041;28;20092;-47
2023/01/14 11:47:26;;;;;;;2.47;1.13;;;;;;;;;;5083134;28;20523;-46
2023/01/14 11:50:14;;;;;;;6.75;1.75;;;;;;;;;;5084390;28;20081;-46
2023/01/14 11:52:40;;;;;;;4.78;1.23;;;;;;;;;;5088683;28;20035;-48
2023/01/14 11:55:17;;;;;;;3.03;1.00;;;;;;;;;;5087629;28;20414;-47
2023/01/14 11:57:43;;;;;;;3.08;1.30;;;;;;;;;;5089454;28;20039;-47
2023/01/14 12:00:12;;;;;;;3.88;1.30;;;;;;;;;;5089383;28;20032;-47
2023/01/14 12:02:41;;;;;;;3.60;1.27;;;;;;;;;;5088735;28;20529;-47
2023/01/14 12:05:10;;;;;;;2.10;1.33;;;;;;;;;;5088909;28;20025;-46
2023/01/14 12:07:43;;;;;;;3.58;1.13;;;;;;;;;;5082843;28;20419;-46
2023/01/14 12:10:18;;;;;;;5.53;1.48;;;;;;;;;;5087827;28;20024;-47
2023/01/14 12:18:41;;;;;;;2.47;1.10;;;;;;;;;;5088624;28;20059;-47
2023/01/14 12:21:08;;;;;;;4.35;1.45;;;;;;;;;;5088321;28;20445;-45
2023/01/14 12:23:57;;;;;;;2.30;1.23;;;;;;;;;;5088168;28;20142;-45
2023/01/14 12:26:26;;;;;;;2.17;1.08;;;;;;;;;;5087945;28;20055;-49
2023/01/14 12:28:57;;;;;;;2.90;1.25;;;;;;;;;;5088067;28;20036;-45
2023/01/14 12:31:30;;;;;;;1.88;1.00;;;;;;;;;;5088095;28;20391;-45
2023/01/14 12:34:16;;;;;;;3.03;1.00;;;;;;;;;;5088675;28;20024;-46
2023/01/14 12:36:51;;;;;;;3.20;1.02;;;;;;;;;;5088077;28;20032;-46
2023/01/14 12:48:04;;;;;;;2.25;0.93;;;;;;;;;;5088013;28;20435;-45
2023/01/14 12:50:30;;;;;;;3.00;1.02;;;;;;;;;;5088658;28;20038;-46
2023/01/14 12:52:57;;;;;;;2.42;0.82;;;;;;;;;;5088315;28;20028;-45
2023/01/14 12:55:25;;;;;;;2.53;0.75;;;;;;;;;;5088007;28;20044;-45
2023/01/14 12:57:53;;;;;;;4.05;1.45;;;;;;;;;;5087539;28;20032;-47
2023/01/14 13:00:29;;;;;;;2.70;0.80;;;;;;;;;;5087563;28;20038;-47
2023/01/14 13:02:57;;;;;;;1.35;0.80;;;;;;;;;;5088056;28;20073;-46
2023/01/14 13:05:37;;;;;;;1.75;0.90;;;;;;;;;;5087534;28;20028;-46
2023/01/14 13:08:05;;;;;;;2.40;1.08;;;;;;;;;;5087667;28;20249;-46
2023/01/14 13:10:32;;;;;;;1.00;0.77;;;;;;;;;;5087468;28;20040;-46
2023/01/14 13:13:00;;;;;;;3.65;1.23;;;;;;;;;;5087955;28;20506;-46
2023/01/14 13:15:30;;;;;;;2.80;1.00;;;;;;;;;;5088017;28;20035;-45
2023/01/14 13:18:00;;;;;;;1.73;0.80;;;;;;;;;;5088193;28;20028;-49
2023/01/14 13:20:29;;;;;;;3.05;0.93;;;;;;;;;;5087935;28;20093;-47
2023/01/14 13:22:57;;;;;;;1.67;0.90;;;;;;;;;;5088160;28;20024;-46
2023/01/14 13:25:33;;;;;;;3.92;1.42;;;;;;;;;;5087203;28;20031;-45
2023/01/14 13:28:03;;;;;;;2.63;1.17;;;;;;;;;;5087922;28;20430;-47
2023/01/14 13:30:30;;;;;;;3.97;1.38;;;;;;;;;;5087887;28;20055;-47
2023/01/14 13:32:59;;;;;;;1.98;1.02;;;;;;;;;;5087756;28;20034;-47
2023/01/14 13:35:26;;;;;;;2.75;1.20;;;;;;;;;;5087339;28;20020;-46
2023/01/14 13:37:53;;;;;;;4.13;1.42;;;;;;;;;;5087018;28;20406;-45
2023/01/14 13:40:22;;;;;;;1.48;0.80;;;;;;;;;;5086755;28;20733;-46
2023/01/14 13:42:56;;;;;;;2.92;0.95;;;;;;;;;;5086650;28;20032;-48
2023/01/14 13:45:27;;;;;;;2.53;1.00;;;;;;;;;;5086781;28;20012;-47
2023/01/14 13:47:53;;;;;;;1.98;1.00;;;;;;;;;;5086806;28;20036;-47
2023/01/14 13:50:24;;;;;;;2.45;1.00;;;;;;;;;;5086753;28;20027;-45
2023/01/14 13:53:00;;;;;;;2.85;1.27;;;;;;;;;;5086827;28;20139;-45
2023/01/14 13:55:28;;;;;;;3.08;0.93;;;;;;;;;;5086974;28;20035;-47
2023/01/14 13:57:56;;;;;;;2.88;1.20;;;;;;;;;;5086654;28;20542;-47
2023/01/14 14:00:27;;;;;;;5.57;1.20;;;;;;;;;;5086574;28;20054;-47
2023/01/14 14:02:54;;;;;;;2.08;1.17;;;;;;;;;;5086520;28;20036;-45
2023/01/14 14:05:23;;;;;;;2.70;0.85;;;;;;;;;;5086301;28;20522;-46
2023/01/14 14:07:49;;;;;;;3.15;1.00;;;;;;;;;;5086498;28;20028;-46
2023/01/14 14:10:23;;;;;;;2.53;1.20;;;;;;;;;;5085947;28;20035;-48
2023/01/14 14:15:43;;;;;;;2.97;1.08;;;;;;;;;;5086154;28;20137;-46
2023/01/14 14:18:18;;;;;;;3.50;0.93;;;;;;;;;;5086307;28;20315;-48
2023/01/14 14:20:44;;;;;;;;;;;;;;;;;;5086352;28;20028;-45
2023/01/14 14:23:19;;;;;;;3.58;1.02;;;;;;;;;;5085731;28;19945;-46
2023/01/14 14:25:45;;;;;;;4.70;1.42;;;;;;;;;;5086247;28;20358;-48
2023/01/14 14:28:17;;;;;;;3.35;1.40;;;;;;;;;;5086015;28;20024;-45
2023/01/14 14:30:50;;;;;;;5.95;1.30;;;;;;;;;;5086194;28;20085;-49
2023/01/14 14:33:38;;;;;;;3.92;1.17;;;;;;;;;;5085694;28;20414;-47
2023/01/14 14:36:10;;;;;;;3.05;1.30;;;;;;;;;;5086420;28;20024;-49
2023/01/14 14:38:37;;;;;;;4.40;1.23;;;;;;;;;;5085772;28;20442;-45
2023/01/14 14:41:08;;;;;;;2.53;1.13;;;;;;;;;;5086041;28;20161;-47
2023/01/14 14:43:34;;;;;;;3.35;1.30;;;;;;;;;;5085854;28;20020;-48
2023/01/14 14:46:01;;;;;;;4.30;1.27;;;;;;;;;;5086141;28;20445;-45
2023/01/14 14:48:29;;;;;;;2.78;1.20;;;;;;;;;;5086356;28;20031;-48
2023/01/14 14:50:55;;;;;;;3.42;1.45;;;;;;;;;;5086344;28;20034;-45
2023/01/14 14:53:26;;;;;;;3.40;1.35;;;;;;;;;;5085486;28;20051;-45
2023/01/14 14:55:53;;;;;;;2.25;1.20;;;;;;;;;;5085660;28;20027;-47
2023/01/14 14:58:22;;;;;;;2.50;1.17;;;;;;;;;;5085599;28;20036;-48
2023/01/14 15:00:53;;;;;;;1.92;1.08;;;;;;;;;;5085310;28;20028;-48
2023/01/14 15:03:20;;;;;;;3.38;1.48;;;;;;;;;;5085255;28;20064;-46
2023/01/14 15:05:48;;;;;;;2.75;1.25;;;;;;;;;;5085511;28;20085;-46
2023/01/14 15:08:24;;;;;;;3.03;1.48;;;;;;;;;;5085310;28;20016;-46
2023/01/14 15:10:50;;;;;;;4.18;1.60;;;;;;;;;;5085594;28;20031;-46
2023/01/14 15:13:36;;;;;;;4.45;1.58;;;;;;;;;;5085022;28;20028;-45
2023/01/14 15:16:22;;;;;;;3.03;1.00;;;;;;;;;;5085284;28;20162;-46
2023/01/14 15:18:51;;;;;;;3.20;0.93;;;;;;;;;;5085237;28;20102;-46
2023/01/14 15:21:22;;;;;;;3.08;1.30;;;;;;;;;;5085122;28;20481;-49
2023/01/14 15:23:50;;;;;;;2.85;1.20;;;;;;;;;;5085941;28;20020;-49
2023/01/14 15:26:21;;;;;;;2.95;1.30;;;;;;;;;;5092021;28;20490;-48
2023/01/14 15:28:47;;;;;;;2.72;1.42;;;;;;;;;;5092428;28;20024;-44
2023/01/14 15:31:39;;;;;;;2.65;1.13;;;;;;;;;;5092336;28;20031;-46
2023/01/14 15:34:18;;;;;;;2.88;1.35;;;;;;;;;;5088163;28;20533;-45
2023/01/14 15:36:46;;;;;;;4.68;1.70;;;;;;;;;;5092091;28;20132;-47
2023/01/14 15:39:13;;;;;;;3.78;1.67;;;;;;;;;;5091996;28;20020;-45
2023/01/14 15:41:44;;;;;;;2.63;1.60;;;;;;;;;;5091845;28;20070;-46
2023/01/14 15:44:16;;;;;;;2.60;1.35;;;;;;;;;;5092333;28;20486;-48
2023/01/14 15:46:44;;;;;;;3.05;1.42;;;;;;;;;;5092106;28;20390;-48
2023/01/14 15:49:10;;;;;;;2.28;1.13;;;;;;;;;;5091939;28;20016;-49
2023/01/14 15:51:39;;;;;;;1.92;1.20;;;;;;;;;;5091653;28;20081;-49
2023/01/14 15:54:24;;;;;;;2.33;1.20;;;;;;;;;;5091943;28;20030;-50
2023/01/14 15:56:50;;;;;;;3.53;1.92;;;;;;;;;;5091793;28;20396;-48
2023/01/14 15:59:16;;;;;;;3.35;2.20;;;;;;;;;;5091826;28;20046;-47
2023/01/14 16:01:53;;;;;;;4.35;2.50;;;;;;;;;;5091711;28;20028;-47
2023/01/14 16:04:23;;;;;;;3.10;1.70;;;;;;;;;;5091737;28;20518;-48
2023/01/14 16:06:53;;;;;;;3.47;2.22;;;;;;;;;;5091506;28;20035;-45
2023/01/14 16:09:19;;;;;;;4.00;2.10;;;;;;;;;;5091496;28;20024;-45
2023/01/14 16:11:47;;;;;;;3.83;1.88;;;;;;;;;;5091633;28;20486;-46
2023/01/14 16:14:18;;;;;;;2.10;1.60;;;;;;;;;;5091505;28;20516;-47
2023/01/14 16:16:44;;;;;;;4.45;2.20;;;;;;;;;;5091423;28;20394;-46
2023/01/14 16:19:10;;;;;;;3.00;1.88;;;;;;;;;;5091454;28;20020;-46
2023/01/14 16:21:37;;;;;;;3.38;2.00;;;;;;;;;;5091241;28;20031;-46
2023/01/14 16:24:04;;;;;;;3.15;1.60;;;;;;;;;;5091039;28;20034;-45
2023/01/14 16:26:30;;;;;;;2.45;1.25;;;;;;;;;;5091799;28;20094;-46
2023/01/14 16:28:56;;;;;;;2.53;1.33;;;;;;;;;;5092024;28;20107;-46
2023/01/14 16:31:22;;;;;;;2.72;1.35;;;;;;;;;;5091396;28;20107;-48
2023/01/14 16:33:48;;;;;;;5.72;1.75;;;;;;;;;;5091200;28;20032;-49
2023/01/14 16:36:15;;;;;;;2.00;1.25;;;;;;;;;;5088789;28;20024;-48
2023/01/14 16:38:42;;;;;;;3.63;1.52;;;;;;;;;;5088207;28;20795;-45
2023/01/14 16:41:09;;;;;;;4.53;1.70;;;;;;;;;;5088325;28;20077;-45
2023/01/14 16:43:35;;;;;;;3.80;2.10;;;;;;;;;;5087952;28;20020;-45
2023/01/14 16:46:01;;;;;;;3.20;1.70;;;;;;;;;;5088150;28;20042;-46
2023/01/14 16:48:28;;;;;;;4.93;1.92;;;;;;;;;;5088582;28;20556;-46
2023/01/14 16:51:00;;;;;;;3.13;1.45;;;;;;;;;;5088693;28;20028;-46
2023/01/14 16:53:26;;;;;;;3.25;1.65;;;;;;;;;;5089581;28;20503;-47
2023/01/14 16:55:52;;;;;;;3.38;1.80;;;;;;;;;;5089278;28;20060;-46
2023/01/14 16:58:18;;;;;;;3.10;1.50;;;;;;;;;;5089312;28;20028;-45
2023/01/14 17:00:45;;;;;;;4.07;2.60;;;;;;;;;;5088550;28;20043;-47
2023/01/14 17:03:14;;;;;;;4.30;2.92;;;;;;;;;;5087222;28;20031;-45
2023/01/14 17:05:40;;;;;;;5.38;2.45;;;;;;;;;;5087725;28;20024;-47
2023/01/14 17:08:06;;;;;;;5.60;2.25;;;;;;;;;;5087847;28;20112;-46
2023/01/14 17:10:32;;;;;;;3.72;1.63;;;;;;;;;;5087746;28;20059;-46
2023/01/14 17:12:59;;;;;;;3.03;1.77;;;;;;;;;;5088038;28;20603;-45
2023/01/14 17:15:26;;;;;;;3.03;1.48;;;;;;;;;;5087740;28;20034;-46
2023/01/14 17:17:54;;;;;;;3.85;1.50;;;;;;;;;;5087120;28;20051;-47
2023/01/14 17:20:23;;;;;;;3.22;1.45;;;;;;;;;;5087451;28;20028;-47
2023/01/14 17:22:50;;;;;;;2.40;0.90;;;;;;;;;;5086213;28;20024;-46
2023/01/14 17:25:17;;;;;;;4.57;1.25;;;;;;;;;;5087924;28;20108;-46
2023/01/14 17:27:44;;;;;;;2.92;1.33;;;;;;;;;;5086583;28;20115;-46
2023/01/14 17:30:15;;;;;;;2.13;1.27;;;;;;;;;;5085714;28;20391;-46
2023/01/14 17:32:41;;;;;;;2.47;1.20;;;;;;;;;;5090824;28;20372;-46
2023/01/14 17:35:08;;;;;;;1.55;1.05;;;;;;;;;;5068337;28;20035;-45
2023/01/14 17:37:35;;;;;;;3.15;1.52;;;;;;;;;;5084505;28;20061;-45
2023/01/14 17:40:02;;;;;;;4.57;1.85;;;;;;;;;;5088172;28;20497;-45
2023/01/14 17:42:28;;;;;;;2.58;1.27;;;;;;;;;;5089180;28;20399;-44
2023/01/14 17:44:55;;;;;;;3.42;1.50;;;;;;;;;;5087323;28;20020;-47
2023/01/14 17:47:21;;;;;;;3.97;1.58;;;;;;;;;;5087142;28;20032;-46
2023/01/14 17:49:48;;;;;;;2.75;1.40;;;;;;;;;;5088147;28;20032;-47
2023/01/14 17:52:14;;;;;;;2.85;1.27;;;;;;;;;;5087294;28;20031;-49
2023/01/14 17:54:41;;;;;;;2.33;1.35;;;;;;;;;;5089070;28;20024;-47
2023/01/14 17:57:08;;;;;;;4.22;1.63;;;;;;;;;;5108397;28;20162;-48
2023/01/14 17:59:34;;;;;;;2.08;1.15;;;;;;;;;;5070452;28;20024;-45
2023/01/14 18:02:01;;;;;;;1.63;1.00;;;;;;;;;;5067269;28;20036;-45
2023/01/14 18:04:27;;;;;;;2.88;1.13;;;;;;;;;;5067335;28;20024;-45
2023/01/14 18:06:53;;;;;;;1.90;1.08;;;;;;;;;;5066638;28;20099;-44
2023/01/14 18:09:19;;;;;;;2.10;1.20;;;;;;;;;;5066892;28;20542;-45
2023/01/14 18:11:46;;;;;;;1.70;1.10;;;;;;;;;;5084633;28;20047;-47
2023/01/14 18:14:12;;;;;;;1.45;1.00;;;;;;;;;;5084271;28;20036;-46
2023/01/14 18:16:38;;;;;;;2.35;1.00;;;;;;;;;;5085093;28;20071;-45
2023/01/14 18:19:05;;;;;;;1.73;1.05;;;;;;;;;;5084728;28;20488;-48
2023/01/14 18:21:31;;;;;;;1.13;0.90;;;;;;;;;;5104718;28;20028;-46
2023/01/14 18:23:57;;;;;;;2.38;1.08;;;;;;;;;;5087120;28;20032;-45
2023/01/14 18:26:24;;;;;;;3.20;1.48;;;;;;;;;;5105222;28;20031;-45
2023/01/14 18:28:52;;;;;;;2.72;1.35;;;;;;;;;;5104859;28;20095;-46
2023/01/14 18:31:19;;;;;;;5.35;1.67;;;;;;;;;;5104798;28;20498;-45
2023/01/14 18:33:45;;;;;;;1.98;1.15;;;;;;;;;;5064504;28;20103;-47
2023/01/14 18:36:11;;;;;;;2.13;1.23;;;;;;;;;;5064300;28;20029;-44
2023/01/14 18:38:37;;;;;;;2.95;1.30;;;;;;;;;;5065084;28;20103;-46
2023/01/14 18:41:04;;;;;;;2.88;1.38;;;;;;;;;;5062903;28;20032;-46
2023/01/14 18:43:30;;;;;;;3.15;1.23;;;;;;;;;;5064195;28;20126;-45
2023/01/14 18:45:56;;;;;;;4.40;1.45;;;;;;;;;;5069258;28;20035;-46
2023/01/14 18:48:22;;;;;;;2.45;1.30;;;;;;;;;;5072325;28;20082;-45
2023/01/14 18:50:48;;;;;;;4.80;1.95;;;;;;;;;;5056123;28;20085;-45
2023/01/14 18:53:14;;;;;;;4.25;1.55;;;;;;;;;;5083850;28;20023;-49
2023/01/14 18:55:40;;;;;;;3.33;1.33;;;;;;;;;;5066124;28;20027;-46
2023/01/14 18:58:06;;;;;;;3.35;1.20;;;;;;;;;;5083173;28;20039;-48
2023/01/14 19:00:32;;;;;;;3.33;1.40;;;;;;;;;;5083732;28;20107;-46
2023/01/14 19:02:58;;;;;;;4.18;1.60;;;;;;;;;;5084739;28;20031;-47
2023/01/14 19:05:24;;;;;;;4.28;1.88;;;;;;;;;;5084359;28;20024;-46
2023/01/14 19:07:50;;;;;;;3.20;1.60;;;;;;;;;;5065232;28;20024;-48
2023/01/14 19:10:17;;;;;;;3.20;1.40;;;;;;;;;;5083816;28;20031;-45
2023/01/14 19:12:43;;;;;;;3.70;1.55;;;;;;;;;;5084418;28;20032;-48
2023/01/14 19:15:09;;;;;;;5.85;1.60;;;;;;;;;;5083827;28;20040;-44
2023/01/14 19:17:35;;;;;;;4.30;1.60;;;;;;;;;;5082781;28;20069;-47
2023/01/14 19:20:01;;;;;;;7.60;1.65;;;;;;;;;;5082734;28;20032;-46
2023/01/14 19:22:27;;;;;;;3.47;1.58;;;;;;;;;;5067107;28;20686;-46
2023/01/14 19:24:53;;;;;;;5.18;2.22;;;;;;;;;;5084089;28;20547;-48
2023/01/14 19:27:19;;;;;;;7.22;3.10;;;;;;;;;;5084122;28;20055;-45
2023/01/14 19:29:45;;;;;;;7.93;3.25;;;;;;;;;;5083779;28;20024;-45
2023/01/14 19:32:12;;;;;;;7.35;2.60;;;;;;;;;;5085387;28;20487;-49
2023/01/14 19:34:39;;;;;;;5.53;2.30;;;;;;;;;;5084274;28;20036;-46
2023/01/14 19:37:06;;;;;;;3.85;1.95;;;;;;;;;;5081353;28;21199;-45
2023/01/14 19:39:32;;;;;;;4.25;2.13;;;;;;;;;;5066420;28;20498;-46
2023/01/14 19:41:59;;;;;;;4.65;1.90;;;;;;;;;;5085959;28;20445;-45
2023/01/14 19:44:26;;;;;;;3.17;1.63;;;;;;;;;;5067560;28;20024;-47
2023/01/14 19:46:52;;;;;;;6.90;2.00;;;;;;;;;;5085406;28;20024;-48
2023/01/14 19:49:18;;;;;;;3.40;2.00;;;;;;;;;;5084691;28;20043;-48
2023/01/14 19:51:44;;;;;;;3.45;2.15;;;;;;;;;;5084737;28;20024;-47
2023/01/14 19:54:11;;;;;;;3.75;1.70;;;;;;;;;;5066763;28;20024;-46
2023/01/14 19:56:38;;;;;;;4.05;1.67;;;;;;;;;;5062893;28;20033;-44
2023/01/14 19:59:05;;;;;;;3.45;1.60;;;;;;;;;;5064912;28;20036;-48
2023/01/14 20:01:32;;;;;;;4.25;1.95;;;;;;;;;;5084464;28;20550;-47
2023/01/14 20:04:00;;;;;;;3.97;2.00;;;;;;;;;;5083357;28;20527;-47
2023/01/14 20:06:27;;;;;;;5.40;2.08;;;;;;;;;;5084883;28;20407;-47
2023/01/14 20:08:55;;;;;;;5.78;2.00;;;;;;;;;;5081154;28;20067;-49
2023/01/14 20:11:21;;;;;;;5.93;2.00;;;;;;;;;;5085217;28;20387;-46
2023/01/14 20:13:47;;;;;;;3.03;1.52;;;;;;;;;;5079981;28;20119;-48
2023/01/14 20:16:14;;;;;;;3.40;1.60;;;;;;;;;;5067162;28;20036;-49
2023/01/14 20:18:40;;;;;;;3.30;1.65;;;;;;;;;;5078475;28;20070;-45
2023/01/14 20:21:08;;;;;;;4.80;1.40;;;;;;;;;;5087044;28;20588;-46
2023/01/14 20:23:34;;;;;;;4.45;1.70;;;;;;;;;;5078037;28;20529;-46